»·PEaware :: N370BC KTRM-KSNA

N370BC :: KTRM-KSNA

FLIGHT INFORMATION

Flight Status: Arrived
Operator: Privately registered:
United States
More flights under this callsign
Pilot: Drew L. (13237)
Aircraft: BOEING 737-200
(B732)
More flights by this aircraft type
Origin: KTRM Desert Resorts Regl
United States
Destination: KSNA John Wayne-Orange Co
United States
More flights between these airports :: More routes between these airports
Route: DCT
File this flight plan on PilotEdge
Remarks: ROGER
Altitude:
(Current/Filed)
14,500ft
Speed:
(Current/Filed)
0kts
Departed: 17-Oct-18 01:52 PM
Arrived: 17-Oct-18 02:18 PM
Distance/Time
Traveled:
86nm/0:26
Distance/Time
To Go:
Arrived

Flight Plot

Page will automatically refresh every two minutes.


Map Options




Map Legend


Flown Route
Filed Route
Departure Airport
Arrival Airport
Navaid (VOR, NDB)
Fix

Horizontal Profiles

Position Reports

Time Latitude Longitude Heading Altitude Ground
Speed
17-Oct-18 13:41 33.638056 -116.158145 271 -104ft 0kts
17-Oct-18 13:42 33.638056 -116.158145 271 -104ft 0kts
17-Oct-18 13:43 33.638056 -116.158145 271 -104ft 0kts
17-Oct-18 13:44 33.638056 -116.158145 271 -104ft 0kts
17-Oct-18 13:45 33.638056 -116.158145 271 -104ft 0kts
17-Oct-18 13:46 33.638056 -116.158145 271 -104ft 0kts
17-Oct-18 13:47 33.638056 -116.158145 271 -104ft 0kts
17-Oct-18 13:48 33.638056 -116.158145 271 -104ft 0kts
17-Oct-18 13:49 33.638056 -116.158145 271 -104ft 0kts
17-Oct-18 13:50 33.638056 -116.158145 271 -104ft 0kts
17-Oct-18 13:51 33.638056 -116.158145 271 -104ft 0kts
17-Oct-18 13:52 33.638056 -116.158145 271 -104ft 0kts
17-Oct-18 13:53 33.638858 -116.156467 161 -104ft 14kts
17-Oct-18 13:54 33.636148 -116.156403 180 -104ft 73kts
17-Oct-18 13:55 33.601142 -116.166515 235 1818ft 173kts
17-Oct-18 13:56 33.604528 -116.227851 281 5176ft 208kts
17-Oct-18 13:57 33.613873 -116.301676 281 8059ft 260kts
17-Oct-18 13:58 33.605492 -116.388522 251 10541ft 297kts
17-Oct-18 13:59 33.575046 -116.480707 251 10548ft 303kts
17-Oct-18 14:00 33.553300 -116.577103 280 10577ft 298kts
17-Oct-18 14:01 33.563823 -116.670566 281 10572ft 302kts
17-Oct-18 14:02 33.573911 -116.758380 281 10569ft 305kts
17-Oct-18 14:03 33.585206 -116.856529 281 10568ft 307kts
17-Oct-18 14:04 33.596518 -116.954672 281 10538ft 309kts
17-Oct-18 14:05 33.607108 -117.047357 281 10528ft 309kts
17-Oct-18 14:06 33.618320 -117.143892 281 10512ft 294kts
17-Oct-18 14:07 33.623832 -117.236729 271 10242ft 265kts
17-Oct-18 14:08 33.621164 -117.322644 271 8945ft 261kts
17-Oct-18 14:09 33.618815 -117.404151 271 8507ft 231kts
17-Oct-18 14:10 33.631059 -117.474425 291 8455ft 198kts
17-Oct-18 14:11 33.654520 -117.530894 301 7283ft 188kts
17-Oct-18 14:12 33.677609 -117.581337 301 6140ft 187kts
17-Oct-18 14:13 33.701084 -117.632171 301 5453ft 189kts
17-Oct-18 14:14 33.720671 -117.674206 301 5012ft 183kts
17-Oct-18 14:15 33.738661 -117.712068 301 4327ft 167kts
17-Oct-18 14:16 33.759830 -117.759280 295 3056ft 178kts
17-Oct-18 14:17 33.752151 -117.808407 247 2244ft 175kts
17-Oct-18 14:18 33.723236 -117.838407 209 1203ft 135kts
17-Oct-18 14:19 33.693068 -117.857809 209 389ft 123kts
17-Oct-18 14:20 33.668939 -117.873118 205 65ft 34kts
17-Oct-18 14:21 33.666346 -117.873491 207 65ft 8kts
17-Oct-18 14:22 33.665309 -117.874181 209 65ft 0kts
17-Oct-18 14:23 33.665309 -117.874180 209 65ft 0kts
17-Oct-18 14:24 33.665309 -117.874180 209 65ft 0kts
17-Oct-18 14:25 33.665414 -117.874109 209 65ft 2kts
17-Oct-18 14:26 33.665992 -117.873665 243 65ft 2kts
17-Oct-18 14:27 33.666161 -117.873274 220 65ft 0kts
17-Oct-18 14:28 33.666161 -117.873274 220 65ft 0kts
17-Oct-18 14:29 33.666161 -117.873274 220 65ft 0kts
17-Oct-18 14:30 33.666161 -117.873274 220 65ft 0kts
17-Oct-18 14:31 33.666161 -117.873274 220 65ft 0kts
17-Oct-18 14:32 33.666161 -117.873274 220 65ft 0kts
17-Oct-18 14:33 33.666161 -117.873274 220 65ft 0kts
17-Oct-18 14:34 33.666161 -117.873274 220 65ft 0kts

Navigation Log

Ident Type
1. KTRM Airport
2. KSNA Airport